ADDS METAR Data INFO
IDs: Format: Raw Decoded Include TAF

Data at: 0314 UTC 20 Jul 2018

KBFW 200302Z AUTO 36003KT 10SM CLR 19/15 A2979 RMK AO2
KBFW 200245Z AUTO 00000KT 10SM CLR 19/15 A2979 RMK AO2
KBFW 200222Z AUTO 36003KT 10SM BKN100 19/15 A2979 RMK AO2
KBFW 200204Z AUTO 35003KT 10SM OVC100 19/14 A2979 RMK AO2
KBFW 200142Z AUTO 36003KT 10SM OVC100 19/14 A2979 RMK AO2
KBFW 200123Z AUTO 33004KT 10SM OVC100 19/14 A2980 RMK AO2
KBFW 200102Z AUTO 02004KT 10SM SCT050 OVC100 19/14 A2980 RMK AO2
KBFW 200043Z AUTO 05004KT 10SM SCT050 OVC100 20/14 A2980 RMK AO2
KBFW 200025Z AUTO 04006KT 10SM BKN100 21/16 A2979 RMK AO2
KBFW 200004Z AUTO 05004KT 10SM SCT060 21/16 A2979 RMK AO2
KBFW 192343Z AUTO 04005KT 10SM SCT046 SCT060 SCT095 21/16 A2979 RMK AO2
KBFW 192322Z AUTO 03004KT 10SM SCT060 SCT075 BKN095 21/16 A2980 RMK AO2
KBFW 192302Z AUTO 04005KT 10SM SCT080 OVC085 20/16 A2980 RMK AO2
KBFW 192243Z AUTO 05007KT 10SM -RA BKN080 BKN100 21/16 A2980 RMK AO2
KBFW 192224Z AUTO 05004KT 10SM BKN090 21/16 A2980 RMK AO2
KBFW 192204Z AUTO 06005KT 10SM OVC090 21/16 A2981 RMK AO2
KBFW 192142Z AUTO 07006KT 10SM SCT075 BKN090 23/17 A2981 RMK AO2
KBFW 192126Z AUTO 08006KT 10SM SCT075 SCT100 24/17 A2981 RMK AO2
KBFW 192102Z AUTO 07008KT 10SM CLR 24/17 A2982 RMK AO2
KBFW 192044Z AUTO 06007KT 10SM SCT090 26/17 A2982 RMK AO2
KBFW 192027Z AUTO 09008KT 10SM SCT090 26/17 A2982 RMK AO2
KBFW 192002Z AUTO 04007KT 10SM CLR 26/16 A2983 RMK AO2
KBFW 191942Z AUTO 05007KT 10SM CLR 25/16 A2984 RMK AO2
KBFW 191923Z AUTO 07008KT 10SM CLR 24/15 A2984 RMK AO2
KBFW 191903Z AUTO 06006KT 10SM CLR 25/16 A2985 RMK AO2
KBFW 191843Z AUTO 08008KT 10SM CLR 25/15 A2985 RMK AO2
KBFW 191825Z AUTO 08005KT 10SM CLR 25/15 A2985 RMK AO2
KBFW 191805Z AUTO 11006KT 10SM CLR 26/15 A2986 RMK AO2
KBFW 191744Z AUTO 15006KT 10SM CLR 26/13 A2986 RMK AO2
KBFW 191728Z AUTO 14003KT 10SM CLR 26/14 A2986 RMK AO2
KBFW 191704Z AUTO 15006KT 10SM CLR 26/14 A2986 RMK AO2
KBFW 191643Z AUTO 16006KT 10SM CLR 25/16 A2987 RMK AO2
KBFW 191624Z AUTO 11003KT 10SM CLR 24/16 A2987 RMK AO2
KBFW 191606Z AUTO 00000KT 10SM CLR 24/14 A2987 RMK AO2
KBFW 191543Z AUTO 11003KT 10SM CLR 23/15 A2989 RMK AO2
KBFW 191523Z AUTO 16005KT 10SM CLR 24/16 A2989 RMK AO2
KBFW 191503Z AUTO 00000KT 10SM CLR 23/15 A2989 RMK AO2
KBFW 191443Z AUTO 00000KT 10SM CLR 23/16 A2989 RMK AO2
KBFW 191423Z AUTO 00000KT 10SM CLR 23/15 A2989 RMK AO2
KBFW 191405Z AUTO 00000KT 10SM CLR 22/15 A2989 RMK AO2
KBFW 191344Z AUTO 07003KT 10SM CLR 21/16 A2990 RMK AO2
KBFW 191323Z AUTO 00000KT 10SM CLR 20/16 A2990 RMK AO2
KBFW 191303Z AUTO 00000KT 10SM CLR 18/17 A2991 RMK AO2
KBFW 191243Z AUTO 00000KT 10SM CLR 16/16 A2991 RMK AO2
KBFW 191224Z AUTO 00000KT 10SM CLR 15/15 A2991 RMK AO2
KBFW 191204Z AUTO 00000KT 10SM CLR 14/14 A2991 RMK AO2
KBFW 191143Z AUTO 00000KT 10SM CLR 13/13 A2992 RMK AO2
KBFW 191125Z AUTO 00000KT 10SM CLR 12/12 A2992 RMK AO2
KBFW 191107Z AUTO 00000KT 10SM CLR 11/11 A2992 RMK AO2
KBFW 191043Z AUTO 00000KT 10SM CLR 10/10 A2992 RMK AO2
KBFW 191025Z AUTO 00000KT 10SM CLR 11/11 A2992 RMK AO2
KBFW 191005Z AUTO 00000KT 10SM CLR 10/10 A2993 RMK AO2
KBFW 190944Z AUTO 00000KT 10SM CLR 11/11 A2994 RMK AO2
KBFW 190924Z AUTO 00000KT 10SM CLR 11/11 A2994 RMK AO2
KBFW 190903Z AUTO 00000KT 10SM CLR 11/11 A2994 RMK AO2
KBFW 190843Z AUTO 00000KT 10SM CLR 11/11 A2994 RMK AO2
KBFW 190824Z AUTO 00000KT 10SM CLR 12/12 A2994 RMK AO2
KBFW 190804Z AUTO 00000KT 10SM CLR 12/12 A2995 RMK AO2
KBFW 190743Z AUTO 00000KT 10SM CLR 11/11 A2996 RMK AO2
KBFW 190723Z AUTO 00000KT 10SM CLR 11/11 A2996 RMK AO2
KBFW 190703Z AUTO 00000KT 10SM CLR 12/12 A2996 RMK AO2
KBFW 190643Z AUTO 00000KT 10SM CLR 13/13 A2996 RMK AO2
KBFW 190614Z AUTO 00000KT 10SM CLR 12/12 A2996 RMK AO2
KBFW 190547Z AUTO 00000KT 10SM CLR 13/13 A2997 RMK AO2
KBFW 190523Z AUTO 00000KT 10SM CLR 13/13 A2996 RMK AO2
KBFW 190504Z AUTO 00000KT 10SM CLR 13/13 A2997 RMK AO2
KBFW 190443Z AUTO 00000KT 10SM CLR 14/14 A2997 RMK AO2
KBFW 190423Z AUTO 00000KT 10SM CLR 14/14 A2997 RMK AO2
KBFW 190403Z AUTO 00000KT 10SM CLR 15/15 A2997 RMK AO2
KBFW 190345Z AUTO 00000KT 10SM CLR 16/15 A2997 RMK AO2
KBFW 190323Z AUTO 00000KT 10SM CLR 16/16 A2996 RMK AO2
KBFW 190303Z AUTO 00000KT 10SM CLR 16/16 A2996 RMK AO2
KBFW 190245Z AUTO 00000KT 10SM CLR 17/16 A2996 RMK AO2
KBFW 190225Z AUTO 00000KT 10SM CLR 18/15 A2996 RMK AO2
KBFW 190205Z AUTO 00000KT 10SM CLR 18/15 A2996 RMK AO2
KBFW 190143Z AUTO 00000KT 10SM CLR 19/16 A2996 RMK AO2
KBFW 190123Z AUTO 00000KT 10SM CLR 21/16 A2996 RMK AO2
KBFW 190103Z AUTO 00000KT 10SM CLR 22/15 A2997 RMK AO2
KBFW 190043Z AUTO 00000KT 10SM CLR 23/14 A2997 RMK AO2
KBFW 190025Z AUTO 21005KT 10SM CLR 24/13 A2998 RMK AO2
KBFW 190003Z AUTO 21006KT 10SM CLR 25/13 A2998 RMK AO2
KBFW 182346Z AUTO 20008KT 10SM CLR 26/12 A2998 RMK AO2
KBFW 182324Z AUTO 20006G10KT 10SM CLR 26/13 A2999 RMK AO2
KBFW 182303Z AUTO 20010G17KT 10SM CLR 26/13 A2999 RMK AO2
KBFW 182243Z AUTO 20009KT 180V240 10SM CLR 26/13 A2999 RMK AO2
KBFW 182223Z AUTO 21012G17KT 10SM CLR 26/13 A3000 RMK AO2
KBFW 182203Z AUTO 21011G16KT 10SM CLR 26/13 A3000 RMK AO2
KBFW 182143Z AUTO 20012G16KT 10SM CLR 26/14 A3001 RMK AO2
KBFW 182123Z AUTO 19010G16KT 10SM CLR 26/14 A3001 RMK AO2
KBFW 182106Z AUTO 20011KT 10SM CLR 26/14 A3001 RMK AO2
KBFW 182043Z AUTO 19010G15KT 10SM CLR 26/15 A3002 RMK AO2
KBFW 182023Z AUTO 17012G15KT 10SM CLR 26/15 A3002 RMK AO2
KBFW 182003Z AUTO 19011G15KT 10SM CLR 26/15 A3002 RMK AO2
KBFW 181943Z AUTO 18011KT 10SM CLR 26/15 A3003 RMK AO2
KBFW 181923Z AUTO 18012G15KT 10SM CLR 26/15 A3003 RMK AO2
KBFW 181903Z AUTO 18009KT 10SM CLR 26/15 A3003 RMK AO2
KBFW 181843Z AUTO 18011KT 10SM CLR 25/15 A3004 RMK AO2
KBFW 181823Z AUTO 19011KT 10SM CLR 25/14 A3004 RMK AO2
KBFW 181803Z AUTO 17010KT 10SM CLR 25/16 A3005 RMK AO2
KBFW 181744Z AUTO 19009KT 160V220 10SM CLR 26/15 A3005 RMK AO2
KBFW 181726Z AUTO 20006KT 10SM CLR 26/15 A3006 RMK AO2
KBFW 181704Z AUTO 17003KT 10SM CLR 26/14 A3006 RMK AO2
KBFW 181649Z AUTO 21003KT 10SM CLR 26/13 A3007 RMK AO2
KBFW 181629Z AUTO 19005KT 10SM CLR 26/14 A3007 RMK AO2
KBFW 181609Z AUTO 27003KT 10SM CLR 25/14 A3007 RMK AO2
KBFW 181546Z AUTO 25003KT 10SM SCT044 24/14 A3008 RMK AO2
KBFW 181525Z AUTO 00000KT 10SM SCT042 23/14 A3009 RMK AO2